sensor_id;sensor_type;location;lat;lon;timestamp;temperature;humidity
2751;DHT22;1383;48.362;10.908;2023-04-03T00:00:33;3.90;51.30
2751;DHT22;1383;48.362;10.908;2023-04-03T00:03:01;3.90;51.70
2751;DHT22;1383;48.362;10.908;2023-04-03T00:05:28;3.80;51.40
2751;DHT22;1383;48.362;10.908;2023-04-03T00:07:54;3.80;51.40
2751;DHT22;1383;48.362;10.908;2023-04-03T00:10:21;3.90;52.10
2751;DHT22;1383;48.362;10.908;2023-04-03T00:12:48;3.90;51.80
2751;DHT22;1383;48.362;10.908;2023-04-03T00:15:15;3.80;51.80
2751;DHT22;1383;48.362;10.908;2023-04-03T00:17:42;3.80;52.10
2751;DHT22;1383;48.362;10.908;2023-04-03T00:20:09;3.90;52.40
2751;DHT22;1383;48.362;10.908;2023-04-03T00:22:36;3.80;52.10
2751;DHT22;1383;48.362;10.908;2023-04-03T00:25:03;3.90;52.60
2751;DHT22;1383;48.362;10.908;2023-04-03T00:27:30;3.80;52.10
2751;DHT22;1383;48.362;10.908;2023-04-03T00:29:57;3.60;52.00
2751;DHT22;1383;48.362;10.908;2023-04-03T00:32:24;3.70;52.90
2751;DHT22;1383;48.362;10.908;2023-04-03T00:34:51;3.70;53.10
2751;DHT22;1383;48.362;10.908;2023-04-03T00:37:17;3.70;52.90
2751;DHT22;1383;48.362;10.908;2023-04-03T00:39:44;3.80;52.90
2751;DHT22;1383;48.362;10.908;2023-04-03T00:42:11;3.80;52.20
2751;DHT22;1383;48.362;10.908;2023-04-03T00:47:08;3.80;51.00
2751;DHT22;1383;48.362;10.908;2023-04-03T00:49:36;3.80;51.40
2751;DHT22;1383;48.362;10.908;2023-04-03T00:52:08;3.90;50.80
2751;DHT22;1383;48.362;10.908;2023-04-03T00:54:37;3.90;50.30
2751;DHT22;1383;48.362;10.908;2023-04-03T00:57:06;3.90;50.00
2751;DHT22;1383;48.362;10.908;2023-04-03T00:59:36;3.80;49.60
2751;DHT22;1383;48.362;10.908;2023-04-03T01:02:05;3.80;50.00
2751;DHT22;1383;48.362;10.908;2023-04-03T01:04:39;3.70;50.40
2751;DHT22;1383;48.362;10.908;2023-04-03T01:07:15;3.60;49.70
2751;DHT22;1383;48.362;10.908;2023-04-03T01:09:43;3.60;50.30
2751;DHT22;1383;48.362;10.908;2023-04-03T01:12:21;3.70;50.40
2751;DHT22;1383;48.362;10.908;2023-04-03T01:14:51;3.70;50.10
2751;DHT22;1383;48.362;10.908;2023-04-03T01:17:54;3.80;49.90
2751;DHT22;1383;48.362;10.908;2023-04-03T01:22:59;3.90;48.60
2751;DHT22;1383;48.362;10.908;2023-04-03T01:25:29;3.90;48.70
2751;DHT22;1383;48.362;10.908;2023-04-03T01:27:56;3.90;48.70
2751;DHT22;1383;48.362;10.908;2023-04-03T01:30:27;3.90;48.50
2751;DHT22;1383;48.362;10.908;2023-04-03T01:32:57;3.80;48.30
2751;DHT22;1383;48.362;10.908;2023-04-03T01:35:24;3.90;48.40
2751;DHT22;1383;48.362;10.908;2023-04-03T01:37:50;3.90;48.60
2751;DHT22;1383;48.362;10.908;2023-04-03T01:40:17;3.80;47.80
2751;DHT22;1383;48.362;10.908;2023-04-03T01:42:44;3.60;47.70
2751;DHT22;1383;48.362;10.908;2023-04-03T01:45:12;3.60;48.10
2751;DHT22;1383;48.362;10.908;2023-04-03T01:47:38;3.60;48.20
2751;DHT22;1383;48.362;10.908;2023-04-03T01:50:05;3.60;48.20
2751;DHT22;1383;48.362;10.908;2023-04-03T01:52:32;3.60;48.50
2751;DHT22;1383;48.362;10.908;2023-04-03T01:54:59;3.60;48.50
2751;DHT22;1383;48.362;10.908;2023-04-03T01:57:26;3.60;48.10
2751;DHT22;1383;48.362;10.908;2023-04-03T01:59:53;3.50;48.40
2751;DHT22;1383;48.362;10.908;2023-04-03T02:02:20;3.50;48.40
2751;DHT22;1383;48.362;10.908;2023-04-03T02:04:46;3.50;48.70
2751;DHT22;1383;48.362;10.908;2023-04-03T02:07:13;3.50;49.00
2751;DHT22;1383;48.362;10.908;2023-04-03T02:09:40;3.60;49.20
2751;DHT22;1383;48.362;10.908;2023-04-03T02:12:07;3.60;48.90
2751;DHT22;1383;48.362;10.908;2023-04-03T02:14:34;3.60;48.90
2751;DHT22;1383;48.362;10.908;2023-04-03T02:17:01;3.60;48.80
2751;DHT22;1383;48.362;10.908;2023-04-03T02:19:31;3.60;48.80
2751;DHT22;1383;48.362;10.908;2023-04-03T02:21:59;3.40;49.00
2751;DHT22;1383;48.362;10.908;2023-04-03T02:24:26;3.50;49.70
2751;DHT22;1383;48.362;10.908;2023-04-03T02:26:53;3.50;49.70
2751;DHT22;1383;48.362;10.908;2023-04-03T02:29:19;3.60;49.60
2751;DHT22;1383;48.362;10.908;2023-04-03T02:31:46;3.70;49.90
2751;DHT22;1383;48.362;10.908;2023-04-03T02:34:13;3.50;49.90
2751;DHT22;1383;48.362;10.908;2023-04-03T02:36:40;3.50;50.10
2751;DHT22;1383;48.362;10.908;2023-04-03T02:39:07;3.60;50.20
2751;DHT22;1383;48.362;10.908;2023-04-03T02:41:34;3.60;50.20
2751;DHT22;1383;48.362;10.908;2023-04-03T02:44:05;3.60;50.50
2751;DHT22;1383;48.362;10.908;2023-04-03T02:46:33;3.60;50.40
2751;DHT22;1383;48.362;10.908;2023-04-03T02:48:59;3.50;50.60
2751;DHT22;1383;48.362;10.908;2023-04-03T02:51:26;3.60;51.00
2751;DHT22;1383;48.362;10.908;2023-04-03T02:53:53;3.60;50.70
2751;DHT22;1383;48.362;10.908;2023-04-03T02:56:20;3.60;50.50
2751;DHT22;1383;48.362;10.908;2023-04-03T02:58:47;3.50;50.50
2751;DHT22;1383;48.362;10.908;2023-04-03T03:01:14;3.60;51.30
2751;DHT22;1383;48.362;10.908;2023-04-03T03:03:41;3.70;51.20
2751;DHT22;1383;48.362;10.908;2023-04-03T03:06:14;3.80;51.40
2751;DHT22;1383;48.362;10.908;2023-04-03T03:08:41;3.80;50.30
2751;DHT22;1383;48.362;10.908;2023-04-03T03:11:09;3.70;50.40
2751;DHT22;1383;48.362;10.908;2023-04-03T03:13:36;3.60;50.20
2751;DHT22;1383;48.362;10.908;2023-04-03T03:16:03;3.50;51.10
2751;DHT22;1383;48.362;10.908;2023-04-03T03:18:31;3.50;51.60
2751;DHT22;1383;48.362;10.908;2023-04-03T03:20:59;3.50;51.90
2751;DHT22;1383;48.362;10.908;2023-04-03T03:23:28;3.50;51.90
2751;DHT22;1383;48.362;10.908;2023-04-03T03:25:56;3.60;52.00
2751;DHT22;1383;48.362;10.908;2023-04-03T03:28:23;3.60;52.70
2751;DHT22;1383;48.362;10.908;2023-04-03T03:30:50;3.50;52.00
2751;DHT22;1383;48.362;10.908;2023-04-03T03:33:18;3.60;52.30
2751;DHT22;1383;48.362;10.908;2023-04-03T03:35:45;3.60;52.40
2751;DHT22;1383;48.362;10.908;2023-04-03T03:38:12;3.60;52.50
2751;DHT22;1383;48.362;10.908;2023-04-03T03:40:39;3.60;52.70
2751;DHT22;1383;48.362;10.908;2023-04-03T03:43:06;3.50;53.10
2751;DHT22;1383;48.362;10.908;2023-04-03T03:45:33;3.50;53.10
2751;DHT22;1383;48.362;10.908;2023-04-03T03:48:00;3.50;53.30
2751;DHT22;1383;48.362;10.908;2023-04-03T03:50:27;3.50;53.50
2751;DHT22;1383;48.362;10.908;2023-04-03T03:52:54;3.50;53.90
2751;DHT22;1383;48.362;10.908;2023-04-03T03:55:21;3.50;54.00
2751;DHT22;1383;48.362;10.908;2023-04-03T03:57:48;3.40;54.30
2751;DHT22;1383;48.362;10.908;2023-04-03T04:00:15;3.40;54.60
2751;DHT22;1383;48.362;10.908;2023-04-03T04:02:42;3.40;55.50
2751;DHT22;1383;48.362;10.908;2023-04-03T04:05:09;3.40;54.90
2751;DHT22;1383;48.362;10.908;2023-04-03T04:07:36;3.40;54.80
2751;DHT22;1383;48.362;10.908;2023-04-03T04:10:04;3.40;54.90
2751;DHT22;1383;48.362;10.908;2023-04-03T04:12:31;3.30;55.00
2751;DHT22;1383;48.362;10.908;2023-04-03T04:14:57;3.30;55.80
2751;DHT22;1383;48.362;10.908;2023-04-03T04:17:24;3.30;55.60
2751;DHT22;1383;48.362;10.908;2023-04-03T04:19:51;3.40;55.70
2751;DHT22;1383;48.362;10.908;2023-04-03T04:22:18;3.30;55.40
2751;DHT22;1383;48.362;10.908;2023-04-03T04:24:44;3.40;55.40
2751;DHT22;1383;48.362;10.908;2023-04-03T04:27:11;3.30;55.60
2751;DHT22;1383;48.362;10.908;2023-04-03T04:29:38;3.30;56.10
2751;DHT22;1383;48.362;10.908;2023-04-03T04:32:05;3.20;56.00
2751;DHT22;1383;48.362;10.908;2023-04-03T04:34:32;3.20;56.40
2751;DHT22;1383;48.362;10.908;2023-04-03T04:36:59;3.20;56.30
2751;DHT22;1383;48.362;10.908;2023-04-03T04:39:26;3.20;56.20
2751;DHT22;1383;48.362;10.908;2023-04-03T04:41:52;3.30;56.70
2751;DHT22;1383;48.362;10.908;2023-04-03T04:44:19;3.20;55.90
2751;DHT22;1383;48.362;10.908;2023-04-03T04:46:47;3.20;56.70
2751;DHT22;1383;48.362;10.908;2023-04-03T04:49:13;3.20;56.70
2751;DHT22;1383;48.362;10.908;2023-04-03T04:51:40;3.20;56.70
2751;DHT22;1383;48.362;10.908;2023-04-03T04:54:17;3.30;56.80
2751;DHT22;1383;48.362;10.908;2023-04-03T04:56:44;3.30;56.80
2751;DHT22;1383;48.362;10.908;2023-04-03T04:59:11;3.30;56.80
2751;DHT22;1383;48.362;10.908;2023-04-03T05:01:38;3.40;57.00
2751;DHT22;1383;48.362;10.908;2023-04-03T05:04:05;3.30;56.00
2751;DHT22;1383;48.362;10.908;2023-04-03T05:06:32;3.40;56.60
2751;DHT22;1383;48.362;10.908;2023-04-03T05:08:59;3.40;56.10
2751;DHT22;1383;48.362;10.908;2023-04-03T05:11:26;3.40;56.10
2751;DHT22;1383;48.362;10.908;2023-04-03T05:13:53;3.30;56.20
2751;DHT22;1383;48.362;10.908;2023-04-03T05:16:20;3.40;56.20
2751;DHT22;1383;48.362;10.908;2023-04-03T05:18:47;3.40;56.10
2751;DHT22;1383;48.362;10.908;2023-04-03T05:21:13;3.40;55.90
2751;DHT22;1383;48.362;10.908;2023-04-03T05:23:40;3.30;56.00
2751;DHT22;1383;48.362;10.908;2023-04-03T05:26:07;3.20;56.70
2751;DHT22;1383;48.362;10.908;2023-04-03T05:28:34;3.20;57.00
2751;DHT22;1383;48.362;10.908;2023-04-03T05:31:01;3.20;57.60
2751;DHT22;1383;48.362;10.908;2023-04-03T05:33:28;3.20;57.90
2751;DHT22;1383;48.362;10.908;2023-04-03T05:35:55;3.10;58.10
2751;DHT22;1383;48.362;10.908;2023-04-03T05:38:22;3.20;58.40
2751;DHT22;1383;48.362;10.908;2023-04-03T05:40:49;3.20;58.20
2751;DHT22;1383;48.362;10.908;2023-04-03T05:43:15;3.30;58.00
2751;DHT22;1383;48.362;10.908;2023-04-03T05:45:43;3.30;58.20
2751;DHT22;1383;48.362;10.908;2023-04-03T05:48:12;3.30;57.50
2751;DHT22;1383;48.362;10.908;2023-04-03T05:50:39;3.30;57.80
2751;DHT22;1383;48.362;10.908;2023-04-03T05:53:16;3.30;57.70
2751;DHT22;1383;48.362;10.908;2023-04-03T05:55:44;3.30;57.50
2751;DHT22;1383;48.362;10.908;2023-04-03T05:58:11;3.30;57.80
2751;DHT22;1383;48.362;10.908;2023-04-03T06:00:38;3.20;57.80
2751;DHT22;1383;48.362;10.908;2023-04-03T06:03:05;3.20;59.30
2751;DHT22;1383;48.362;10.908;2023-04-03T06:05:33;3.20;58.60
2751;DHT22;1383;48.362;10.908;2023-04-03T06:07:59;3.20;58.80
2751;DHT22;1383;48.362;10.908;2023-04-03T06:10:26;3.20;58.50
2751;DHT22;1383;48.362;10.908;2023-04-03T06:12:53;3.10;58.80
2751;DHT22;1383;48.362;10.908;2023-04-03T06:15:20;3.20;59.40
2751;DHT22;1383;48.362;10.908;2023-04-03T06:17:47;3.20;59.30
2751;DHT22;1383;48.362;10.908;2023-04-03T06:20:14;3.20;59.00
2751;DHT22;1383;48.362;10.908;2023-04-03T06:22:41;3.30;58.90
2751;DHT22;1383;48.362;10.908;2023-04-03T06:25:08;3.30;59.00
2751;DHT22;1383;48.362;10.908;2023-04-03T06:27:36;3.50;59.10
2751;DHT22;1383;48.362;10.908;2023-04-03T06:30:05;3.50;58.10
2751;DHT22;1383;48.362;10.908;2023-04-03T06:32:33;3.40;58.30
2751;DHT22;1383;48.362;10.908;2023-04-03T06:34:59;3.30;58.60
2751;DHT22;1383;48.362;10.908;2023-04-03T06:37:27;3.30;58.80
2751;DHT22;1383;48.362;10.908;2023-04-03T06:39:55;3.40;59.30
2751;DHT22;1383;48.362;10.908;2023-04-03T06:42:22;3.30;58.90
2751;DHT22;1383;48.362;10.908;2023-04-03T06:44:50;3.30;59.20
2751;DHT22;1383;48.362;10.908;2023-04-03T06:47:17;3.30;59.60
2751;DHT22;1383;48.362;10.908;2023-04-03T06:49:44;3.40;59.60
2751;DHT22;1383;48.362;10.908;2023-04-03T06:52:11;3.40;60.00
2751;DHT22;1383;48.362;10.908;2023-04-03T06:54:39;3.50;59.50
2751;DHT22;1383;48.362;10.908;2023-04-03T06:57:07;3.40;58.70
2751;DHT22;1383;48.362;10.908;2023-04-03T06:59:34;3.50;59.40
2751;DHT22;1383;48.362;10.908;2023-04-03T07:02:02;3.60;59.10
2751;DHT22;1383;48.362;10.908;2023-04-03T07:04:29;3.60;58.30
2751;DHT22;1383;48.362;10.908;2023-04-03T07:06:56;3.70;57.80
2751;DHT22;1383;48.362;10.908;2023-04-03T07:09:23;3.70;57.50
2751;DHT22;1383;48.362;10.908;2023-04-03T07:11:50;3.80;57.10
2751;DHT22;1383;48.362;10.908;2023-04-03T07:14:16;3.70;56.90
2751;DHT22;1383;48.362;10.908;2023-04-03T07:16:43;3.80;57.00
2751;DHT22;1383;48.362;10.908;2023-04-03T07:19:10;3.70;56.80
2751;DHT22;1383;48.362;10.908;2023-04-03T07:21:37;3.80;57.00
2751;DHT22;1383;48.362;10.908;2023-04-03T07:24:04;3.80;56.90
2751;DHT22;1383;48.362;10.908;2023-04-03T07:26:31;3.80;57.20
2751;DHT22;1383;48.362;10.908;2023-04-03T07:28:58;3.80;56.10
2751;DHT22;1383;48.362;10.908;2023-04-03T07:31:24;3.80;56.40
2751;DHT22;1383;48.362;10.908;2023-04-03T07:33:51;3.80;56.40
2751;DHT22;1383;48.362;10.908;2023-04-03T07:36:20;3.80;56.80
2751;DHT22;1383;48.362;10.908;2023-04-03T07:38:48;4.00;57.00
2751;DHT22;1383;48.362;10.908;2023-04-03T07:41:17;4.10;55.90
2751;DHT22;1383;48.362;10.908;2023-04-03T07:43:44;4.20;54.90
2751;DHT22;1383;48.362;10.908;2023-04-03T07:46:12;4.10;54.40
2751;DHT22;1383;48.362;10.908;2023-04-03T07:48:39;4.10;53.90
2751;DHT22;1383;48.362;10.908;2023-04-03T07:51:06;4.00;54.50
2751;DHT22;1383;48.362;10.908;2023-04-03T07:53:33;3.90;54.80
2751;DHT22;1383;48.362;10.908;2023-04-03T07:56:00;3.80;54.80
2751;DHT22;1383;48.362;10.908;2023-04-03T07:58:29;3.90;55.80
2751;DHT22;1383;48.362;10.908;2023-04-03T08:00:56;4.00;55.30
2751;DHT22;1383;48.362;10.908;2023-04-03T08:03:23;4.10;54.50
2751;DHT22;1383;48.362;10.908;2023-04-03T08:05:50;4.20;54.40
2751;DHT22;1383;48.362;10.908;2023-04-03T08:08:20;4.10;54.60
2751;DHT22;1383;48.362;10.908;2023-04-03T08:10:53;4.00;54.30
2751;DHT22;1383;48.362;10.908;2023-04-03T08:13:21;4.10;54.80
2751;DHT22;1383;48.362;10.908;2023-04-03T08:15:48;4.20;54.00
2751;DHT22;1383;48.362;10.908;2023-04-03T08:18:15;4.30;53.40
2751;DHT22;1383;48.362;10.908;2023-04-03T08:20:43;4.10;52.50
2751;DHT22;1383;48.362;10.908;2023-04-03T08:23:10;4.30;53.30
2751;DHT22;1383;48.362;10.908;2023-04-03T08:25:41;4.30;52.90
2751;DHT22;1383;48.362;10.908;2023-04-03T08:28:09;4.30;51.80
2751;DHT22;1383;48.362;10.908;2023-04-03T08:30:39;4.30;52.00
2751;DHT22;1383;48.362;10.908;2023-04-03T08:33:06;4.40;52.40
2751;DHT22;1383;48.362;10.908;2023-04-03T08:35:38;4.30;51.90
2751;DHT22;1383;48.362;10.908;2023-04-03T08:38:07;4.50;52.50
2751;DHT22;1383;48.362;10.908;2023-04-03T08:40:34;4.40;51.20
2751;DHT22;1383;48.362;10.908;2023-04-03T08:43:25;4.30;50.90
2751;DHT22;1383;48.362;10.908;2023-04-03T08:45:59;4.50;50.90
2751;DHT22;1383;48.362;10.908;2023-04-03T08:48:31;4.60;49.70
2751;DHT22;1383;48.362;10.908;2023-04-03T08:51:04;4.80;49.10
2751;DHT22;1383;48.362;10.908;2023-04-03T08:53:41;5.00;47.80
2751;DHT22;1383;48.362;10.908;2023-04-03T08:56:10;5.10;47.10
2751;DHT22;1383;48.362;10.908;2023-04-03T08:58:52;5.10;46.30
2751;DHT22;1383;48.362;10.908;2023-04-03T09:01:34;5.20;45.20
2751;DHT22;1383;48.362;10.908;2023-04-03T09:04:03;5.50;45.90
2751;DHT22;1383;48.362;10.908;2023-04-03T09:06:36;5.70;44.30
2751;DHT22;1383;48.362;10.908;2023-04-03T09:12:00;5.30;43.10
2751;DHT22;1383;48.362;10.908;2023-04-03T09:17:58;5.40;44.10
2751;DHT22;1383;48.362;10.908;2023-04-03T09:22:54;5.40;44.90
2751;DHT22;1383;48.362;10.908;2023-04-03T09:25:47;5.60;44.70
2751;DHT22;1383;48.362;10.908;2023-04-03T09:28:15;5.70;44.30
2751;DHT22;1383;48.362;10.908;2023-04-03T09:30:42;5.70;43.70
2751;DHT22;1383;48.362;10.908;2023-04-03T09:33:09;5.70;44.10
2751;DHT22;1383;48.362;10.908;2023-04-03T09:35:37;5.90;44.10
2751;DHT22;1383;48.362;10.908;2023-04-03T09:38:15;5.80;42.60
2751;DHT22;1383;48.362;10.908;2023-04-03T09:40:47;5.70;42.70
2751;DHT22;1383;48.362;10.908;2023-04-03T09:45:48;5.80;42.60
2751;DHT22;1383;48.362;10.908;2023-04-03T09:48:21;5.70;43.10
2751;DHT22;1383;48.362;10.908;2023-04-03T09:53:35;5.90;43.50
2751;DHT22;1383;48.362;10.908;2023-04-03T09:56:29;6.10;43.30
2751;DHT22;1383;48.362;10.908;2023-04-03T10:01:33;5.80;42.80
2751;DHT22;1383;48.362;10.908;2023-04-03T10:04:12;5.70;42.90
2751;DHT22;1383;48.362;10.908;2023-04-03T10:06:51;5.60;43.30
2751;DHT22;1383;48.362;10.908;2023-04-03T10:09:30;5.40;43.30
2751;DHT22;1383;48.362;10.908;2023-04-03T10:14:25;5.30;44.60
2751;DHT22;1383;48.362;10.908;2023-04-03T10:17:17;5.10;45.00
2751;DHT22;1383;48.362;10.908;2023-04-03T10:20:02;5.00;45.40
2751;DHT22;1383;48.362;10.908;2023-04-03T10:22:46;5.00;45.80
2751;DHT22;1383;48.362;10.908;2023-04-03T10:25:29;5.10;45.40
2751;DHT22;1383;48.362;10.908;2023-04-03T10:28:15;5.20;45.30
2751;DHT22;1383;48.362;10.908;2023-04-03T10:34:00;5.50;44.40
2751;DHT22;1383;48.362;10.908;2023-04-03T10:42:39;5.50;43.90
2751;DHT22;1383;48.362;10.908;2023-04-03T10:48:04;5.50;41.80
2751;DHT22;1383;48.362;10.908;2023-04-03T11:02:04;5.30;43.80
2751;DHT22;1383;48.362;10.908;2023-04-03T11:04:36;5.30;44.30
2751;DHT22;1383;48.362;10.908;2023-04-03T11:07:28;5.40;44.50
2751;DHT22;1383;48.362;10.908;2023-04-03T11:10:03;5.50;43.50
2751;DHT22;1383;48.362;10.908;2023-04-03T11:12:43;5.40;42.60
2751;DHT22;1383;48.362;10.908;2023-04-03T11:15:16;5.30;42.50
2751;DHT22;1383;48.362;10.908;2023-04-03T11:18:23;5.30;43.00
2751;DHT22;1383;48.362;10.908;2023-04-03T11:21:14;5.30;43.30
2751;DHT22;1383;48.362;10.908;2023-04-03T11:23:44;5.20;43.00
2751;DHT22;1383;48.362;10.908;2023-04-03T11:26:19;5.10;43.10
2751;DHT22;1383;48.362;10.908;2023-04-03T11:28:53;5.20;42.50
2751;DHT22;1383;48.362;10.908;2023-04-03T11:34:37;5.40;43.20
2751;DHT22;1383;48.362;10.908;2023-04-03T11:40:06;5.40;41.00
2751;DHT22;1383;48.362;10.908;2023-04-03T11:45:53;5.80;41.20
2751;DHT22;1383;48.362;10.908;2023-04-03T11:50:56;5.50;40.00
2751;DHT22;1383;48.362;10.908;2023-04-03T11:53:28;5.60;40.40
2751;DHT22;1383;48.362;10.908;2023-04-03T11:55:57;5.60;40.40
2751;DHT22;1383;48.362;10.908;2023-04-03T11:58:25;5.70;40.50
2751;DHT22;1383;48.362;10.908;2023-04-03T12:00:59;5.70;39.20
2751;DHT22;1383;48.362;10.908;2023-04-03T12:24:28;5.80;36.20
2751;DHT22;1383;48.362;10.908;2023-04-03T12:29:55;6.10;34.70
2751;DHT22;1383;48.362;10.908;2023-04-03T12:41:43;6.60;33.20
2751;DHT22;1383;48.362;10.908;2023-04-03T12:44:33;6.70;30.10
2751;DHT22;1383;48.362;10.908;2023-04-03T12:49:49;7.10;30.80
2751;DHT22;1383;48.362;10.908;2023-04-03T12:52:32;7.10;29.00
2751;DHT22;1383;48.362;10.908;2023-04-03T12:55:01;7.20;28.10
2751;DHT22;1383;48.362;10.908;2023-04-03T12:57:31;6.90;28.50
2751;DHT22;1383;48.362;10.908;2023-04-03T12:59:59;6.80;29.90
2751;DHT22;1383;48.362;10.908;2023-04-03T13:02:29;6.90;30.40
2751;DHT22;1383;48.362;10.908;2023-04-03T13:04:58;6.90;29.90
2751;DHT22;1383;48.362;10.908;2023-04-03T13:07:32;7.20;31.00
2751;DHT22;1383;48.362;10.908;2023-04-03T13:12:52;7.80;28.60
2751;DHT22;1383;48.362;10.908;2023-04-03T13:15:23;7.80;28.80
2751;DHT22;1383;48.362;10.908;2023-04-03T13:17:52;7.80;27.40
2751;DHT22;1383;48.362;10.908;2023-04-03T13:20:21;7.60;26.90
2751;DHT22;1383;48.362;10.908;2023-04-03T13:23:08;7.20;27.40
2751;DHT22;1383;48.362;10.908;2023-04-03T13:25:41;7.10;28.00
2751;DHT22;1383;48.362;10.908;2023-04-03T13:28:17;6.70;27.50
2751;DHT22;1383;48.362;10.908;2023-04-03T13:33:29;6.10;28.30
2751;DHT22;1383;48.362;10.908;2023-04-03T13:36:03;6.20;28.60
2751;DHT22;1383;48.362;10.908;2023-04-03T13:38:32;6.30;28.30
2751;DHT22;1383;48.362;10.908;2023-04-03T13:41:04;6.40;28.00
2751;DHT22;1383;48.362;10.908;2023-04-03T13:43:36;6.30;26.60
2751;DHT22;1383;48.362;10.908;2023-04-03T13:46:25;6.20;26.00
2751;DHT22;1383;48.362;10.908;2023-04-03T13:48:53;6.20;26.30
2751;DHT22;1383;48.362;10.908;2023-04-03T13:54:10;6.40;25.70
2751;DHT22;1383;48.362;10.908;2023-04-03T13:56:40;6.30;26.10
2751;DHT22;1383;48.362;10.908;2023-04-03T14:04:31;6.70;26.00
2751;DHT22;1383;48.362;10.908;2023-04-03T14:06:58;6.70;26.00
2751;DHT22;1383;48.362;10.908;2023-04-03T14:09:27;6.80;24.40
2751;DHT22;1383;48.362;10.908;2023-04-03T14:11:57;6.70;24.40
2751;DHT22;1383;48.362;10.908;2023-04-03T14:14:31;6.60;23.80
2751;DHT22;1383;48.362;10.908;2023-04-03T14:17:01;6.50;24.30
2751;DHT22;1383;48.362;10.908;2023-04-03T14:19:34;6.50;25.00
2751;DHT22;1383;48.362;10.908;2023-04-03T14:22:21;6.70;25.30
2751;DHT22;1383;48.362;10.908;2023-04-03T14:24:50;6.50;24.40
2751;DHT22;1383;48.362;10.908;2023-04-03T14:27:26;6.40;24.40
2751;DHT22;1383;48.362;10.908;2023-04-03T14:29:55;6.60;24.80
2751;DHT22;1383;48.362;10.908;2023-04-03T14:32:24;6.60;23.70
2751;DHT22;1383;48.362;10.908;2023-04-03T14:34:52;6.50;24.30
2751;DHT22;1383;48.362;10.908;2023-04-03T14:37:23;6.50;24.30
2751;DHT22;1383;48.362;10.908;2023-04-03T14:39:51;6.60;24.20
2751;DHT22;1383;48.362;10.908;2023-04-03T14:42:27;6.50;21.30
2751;DHT22;1383;48.362;10.908;2023-04-03T14:44:54;6.40;20.50
2751;DHT22;1383;48.362;10.908;2023-04-03T14:47:24;6.30;21.30
2751;DHT22;1383;48.362;10.908;2023-04-03T14:49:59;6.30;22.30
2751;DHT22;1383;48.362;10.908;2023-04-03T14:52:30;6.10;21.80
2751;DHT22;1383;48.362;10.908;2023-04-03T14:54:58;6.10;22.30
2751;DHT22;1383;48.362;10.908;2023-04-03T14:57:26;6.00;22.50
2751;DHT22;1383;48.362;10.908;2023-04-03T14:59:54;6.00;22.20
2751;DHT22;1383;48.362;10.908;2023-04-03T15:02:31;6.10;22.40
2751;DHT22;1383;48.362;10.908;2023-04-03T15:05:00;6.20;22.00
2751;DHT22;1383;48.362;10.908;2023-04-03T15:07:33;6.20;21.20
2751;DHT22;1383;48.362;10.908;2023-04-03T15:10:09;6.30;21.20
2751;DHT22;1383;48.362;10.908;2023-04-03T15:12:40;6.50;21.00
2751;DHT22;1383;48.362;10.908;2023-04-03T15:15:07;6.50;20.30
2751;DHT22;1383;48.362;10.908;2023-04-03T15:17:36;6.60;20.40
2751;DHT22;1383;48.362;10.908;2023-04-03T15:20:10;6.70;19.10
2751;DHT22;1383;48.362;10.908;2023-04-03T15:22:37;6.70;18.40
2751;DHT22;1383;48.362;10.908;2023-04-03T15:25:05;6.60;18.30
2751;DHT22;1383;48.362;10.908;2023-04-03T15:27:32;6.70;19.00
2751;DHT22;1383;48.362;10.908;2023-04-03T15:29:58;6.80;19.50
2751;DHT22;1383;48.362;10.908;2023-04-03T15:32:25;6.80;19.20
2751;DHT22;1383;48.362;10.908;2023-04-03T15:34:54;6.80;18.60
2751;DHT22;1383;48.362;10.908;2023-04-03T15:37:22;6.70;18.30
2751;DHT22;1383;48.362;10.908;2023-04-03T15:39:49;6.80;19.60
2751;DHT22;1383;48.362;10.908;2023-04-03T15:42:16;6.60;19.40
2751;DHT22;1383;48.362;10.908;2023-04-03T15:44:43;6.40;19.80
2751;DHT22;1383;48.362;10.908;2023-04-03T15:47:10;6.40;19.90
2751;DHT22;1383;48.362;10.908;2023-04-03T15:49:37;6.30;19.50
2751;DHT22;1383;48.362;10.908;2023-04-03T15:52:04;6.10;20.20
2751;DHT22;1383;48.362;10.908;2023-04-03T15:54:31;6.00;20.00
2751;DHT22;1383;48.362;10.908;2023-04-03T15:56:58;6.00;19.60
2751;DHT22;1383;48.362;10.908;2023-04-03T15:59:25;6.10;20.30
2751;DHT22;1383;48.362;10.908;2023-04-03T16:01:52;6.10;19.80
2751;DHT22;1383;48.362;10.908;2023-04-03T16:04:19;6.10;20.20
2751;DHT22;1383;48.362;10.908;2023-04-03T16:06:47;6.10;20.40
2751;DHT22;1383;48.362;10.908;2023-04-03T16:09:15;6.00;20.50
2751;DHT22;1383;48.362;10.908;2023-04-03T16:11:41;6.00;20.60
2751;DHT22;1383;48.362;10.908;2023-04-03T16:14:10;5.90;20.30
2751;DHT22;1383;48.362;10.908;2023-04-03T16:16:37;5.90;19.20
2751;DHT22;1383;48.362;10.908;2023-04-03T16:19:04;5.90;19.10
2751;DHT22;1383;48.362;10.908;2023-04-03T16:21:32;5.90;19.30
2751;DHT22;1383;48.362;10.908;2023-04-03T16:23:59;6.00;19.30
2751;DHT22;1383;48.362;10.908;2023-04-03T16:26:27;6.00;19.70
2751;DHT22;1383;48.362;10.908;2023-04-03T16:28:54;6.00;19.20
2751;DHT22;1383;48.362;10.908;2023-04-03T16:31:22;6.00;19.50
2751;DHT22;1383;48.362;10.908;2023-04-03T16:33:49;6.00;19.60
2751;DHT22;1383;48.362;10.908;2023-04-03T16:36:16;6.20;20.50
2751;DHT22;1383;48.362;10.908;2023-04-03T16:38:43;6.20;19.50
2751;DHT22;1383;48.362;10.908;2023-04-03T16:41:10;6.10;19.10
2751;DHT22;1383;48.362;10.908;2023-04-03T16:43:37;6.10;19.60
2751;DHT22;1383;48.362;10.908;2023-04-03T16:46:04;5.90;19.40
2751;DHT22;1383;48.362;10.908;2023-04-03T16:48:31;6.00;20.30
2751;DHT22;1383;48.362;10.908;2023-04-03T16:50:58;6.00;20.30
2751;DHT22;1383;48.362;10.908;2023-04-03T16:53:26;6.00;20.70
2751;DHT22;1383;48.362;10.908;2023-04-03T16:55:53;5.90;21.10
2751;DHT22;1383;48.362;10.908;2023-04-03T16:58:20;5.80;21.00
2751;DHT22;1383;48.362;10.908;2023-04-03T17:00:49;5.70;20.70
2751;DHT22;1383;48.362;10.908;2023-04-03T17:03:16;5.60;20.60
2751;DHT22;1383;48.362;10.908;2023-04-03T17:05:47;5.50;20.90
2751;DHT22;1383;48.362;10.908;2023-04-03T17:08:15;5.50;20.50
2751;DHT22;1383;48.362;10.908;2023-04-03T17:10:43;5.50;20.30
2751;DHT22;1383;48.362;10.908;2023-04-03T17:13:09;5.50;20.70
2751;DHT22;1383;48.362;10.908;2023-04-03T17:15:36;5.50;21.10
2751;DHT22;1383;48.362;10.908;2023-04-03T17:18:04;5.50;21.50
2751;DHT22;1383;48.362;10.908;2023-04-03T17:20:31;5.40;21.90
2751;DHT22;1383;48.362;10.908;2023-04-03T17:23:00;5.40;21.90
2751;DHT22;1383;48.362;10.908;2023-04-03T17:25:27;5.30;22.50
2751;DHT22;1383;48.362;10.908;2023-04-03T17:27:54;5.30;22.50
2751;DHT22;1383;48.362;10.908;2023-04-03T17:30:21;5.30;22.50
2751;DHT22;1383;48.362;10.908;2023-04-03T17:32:47;5.30;22.70
2751;DHT22;1383;48.362;10.908;2023-04-03T17:35:14;5.30;23.10
2751;DHT22;1383;48.362;10.908;2023-04-03T17:37:41;5.30;23.30
2751;DHT22;1383;48.362;10.908;2023-04-03T17:40:08;5.20;23.20
2751;DHT22;1383;48.362;10.908;2023-04-03T17:42:35;5.20;23.70
2751;DHT22;1383;48.362;10.908;2023-04-03T17:45:02;5.20;23.50
2751;DHT22;1383;48.362;10.908;2023-04-03T17:47:30;5.10;23.80
2751;DHT22;1383;48.362;10.908;2023-04-03T17:49:57;5.10;24.10
2751;DHT22;1383;48.362;10.908;2023-04-03T17:52:24;5.10;24.20
2751;DHT22;1383;48.362;10.908;2023-04-03T17:54:53;5.10;24.50
2751;DHT22;1383;48.362;10.908;2023-04-03T17:57:20;5.10;24.50
2751;DHT22;1383;48.362;10.908;2023-04-03T17:59:47;5.00;24.40
2751;DHT22;1383;48.362;10.908;2023-04-03T18:02:14;4.90;24.20
2751;DHT22;1383;48.362;10.908;2023-04-03T18:04:41;4.90;24.30